createdAt,value
2023-06-18T00:00:16.868Z,1247.00
2023-06-18T00:01:16.926Z,1248.00
2023-06-18T00:02:16.971Z,1251.00
2023-06-18T00:03:17.043Z,1263.00
2023-06-18T00:04:17.224Z,1270.00
2023-06-18T00:05:17.206Z,1288.00
2023-06-18T00:06:17.207Z,1275.00
2023-06-18T00:07:17.256Z,1261.00
2023-06-18T00:08:17.339Z,1277.00
2023-06-18T00:09:17.380Z,1300.00
2023-06-18T00:10:17.445Z,1280.00
2023-06-18T00:11:17.502Z,1294.00
2023-06-18T00:12:17.550Z,1316.00
2023-06-18T00:13:17.576Z,1308.00
2023-06-18T00:14:17.678Z,1328.00
2023-06-18T00:15:17.691Z,1340.00
2023-06-18T00:16:17.783Z,1309.00
2023-06-18T00:17:17.795Z,1328.00
2023-06-18T00:18:17.843Z,1322.00
2023-06-18T00:19:17.887Z,1330.00
2023-06-18T00:20:17.963Z,1323.00
2023-06-18T00:21:17.972Z,1309.00
2023-06-18T00:22:18.013Z,1288.00
2023-06-18T00:23:18.070Z,1316.00
2023-06-18T00:24:18.109Z,1318.00
2023-06-18T00:25:18.149Z,1338.00
2023-06-18T00:26:18.169Z,1305.00
2023-06-18T00:27:18.229Z,1320.00
2023-06-18T00:28:18.269Z,1333.00
2023-06-18T00:29:18.341Z,1310.00
2023-06-18T00:30:18.407Z,1299.00
2023-06-18T00:31:18.428Z,1310.00
2023-06-18T00:32:18.449Z,1326.00
2023-06-18T00:33:18.474Z,1288.00
2023-06-18T00:34:18.510Z,1256.00
2023-06-18T00:35:18.512Z,1266.00
2023-06-18T00:36:18.525Z,1255.00
2023-06-18T00:37:18.554Z,1250.00
2023-06-18T00:38:18.548Z,1225.00
2023-06-18T00:39:18.584Z,1211.00
2023-06-18T00:40:18.619Z,1222.00
2023-06-18T00:41:18.623Z,1224.00
2023-06-18T00:42:18.652Z,1211.00
2023-06-18T00:43:18.650Z,1210.00
2023-06-18T00:44:18.664Z,1223.00
2023-06-18T00:45:18.717Z,1193.00
2023-06-18T00:46:18.685Z,1185.00
2023-06-18T00:47:18.730Z,1216.00
2023-06-18T00:48:18.719Z,1224.00
2023-06-18T00:49:18.703Z,1226.00
2023-06-18T00:50:18.763Z,1183.00
2023-06-18T00:51:18.723Z,1172.00
2023-06-18T00:52:18.741Z,1147.00
2023-06-18T00:53:18.753Z,1086.00
2023-06-18T00:54:18.782Z,1058.00
2023-06-18T00:55:18.815Z,1043.00
2023-06-18T00:56:18.817Z,1041.00
2023-06-18T00:57:18.843Z,1036.00
2023-06-18T00:58:18.828Z,1063.00
2023-06-18T00:59:18.864Z,1043.00
2023-06-18T01:00:18.896Z,1048.00
2023-06-18T01:01:18.878Z,1074.00
2023-06-18T01:02:18.862Z,1051.00
2023-06-18T01:03:18.980Z,1029.00
2023-06-18T01:04:18.910Z,991.00
2023-06-18T01:05:18.897Z,1002.00
2023-06-18T01:06:18.992Z,1012.00
2023-06-18T01:07:22.358Z,1046.00
2023-06-18T01:08:19.950Z,1046.00
2023-06-18T01:09:18.947Z,1047.00
2023-06-18T01:10:19.310Z,1054.00
2023-06-18T01:11:18.926Z,1057.00
2023-06-18T01:12:18.915Z,1036.00
2023-06-18T01:13:18.898Z,1042.00
2023-06-18T01:14:18.917Z,1036.00
2023-06-18T01:15:18.901Z,1022.00
2023-06-18T01:16:18.930Z,1027.00
2023-06-18T01:17:18.889Z,1014.00
2023-06-18T01:18:18.878Z,1018.00
2023-06-18T01:19:18.861Z,1024.00
2023-06-18T01:20:18.958Z,998.00
2023-06-18T01:21:18.855Z,974.00
2023-06-18T01:22:18.834Z,957.00
2023-06-18T01:23:18.838Z,966.00
2023-06-18T01:24:18.870Z,968.00
2023-06-18T01:25:18.873Z,968.00
2023-06-18T01:26:18.825Z,952.00
2023-06-18T01:27:18.815Z,912.00
2023-06-18T01:28:18.796Z,920.00
2023-06-18T01:29:18.799Z,905.00
2023-06-18T01:30:18.784Z,910.00
2023-06-18T01:31:18.766Z,911.00
2023-06-18T01:32:18.786Z,901.00
2023-06-18T01:33:18.779Z,886.00
2023-06-18T01:34:18.758Z,879.00
2023-06-18T01:35:18.736Z,868.00
2023-06-18T01:36:18.743Z,856.00
2023-06-18T01:37:18.725Z,847.00
2023-06-18T01:38:18.719Z,824.00
2023-06-18T01:39:18.706Z,813.00
2023-06-18T01:40:18.733Z,796.00
2023-06-18T01:41:18.698Z,790.00
2023-06-18T01:42:18.693Z,805.00
2023-06-18T01:43:18.695Z,805.00
2023-06-18T01:44:18.685Z,795.00
2023-06-18T01:45:18.697Z,804.00
2023-06-18T01:46:18.759Z,824.00
2023-06-18T01:47:18.667Z,830.00
2023-06-18T01:48:18.652Z,842.00
2023-06-18T01:49:18.671Z,816.00
2023-06-18T01:50:18.666Z,830.00
2023-06-18T01:51:18.630Z,857.00
2023-06-18T01:52:18.642Z,815.00
2023-06-18T01:53:18.636Z,792.00
2023-06-18T01:54:18.620Z,743.00
2023-06-18T01:55:18.620Z,753.00
2023-06-18T01:56:18.591Z,760.00
2023-06-18T01:57:18.584Z,743.00
2023-06-18T01:58:18.586Z,751.00
2023-06-18T01:59:18.564Z,752.00
2023-06-18T02:00:18.644Z,705.00
2023-06-18T02:01:18.547Z,722.00
2023-06-18T02:02:18.613Z,721.00
2023-06-18T02:03:18.579Z,757.00
2023-06-18T02:04:18.529Z,759.00
2023-06-18T02:05:18.525Z,746.00
2023-06-18T02:06:18.509Z,764.00
2023-06-18T02:07:18.505Z,772.00
2023-06-18T02:08:18.501Z,754.00
2023-06-18T02:09:18.510Z,775.00
2023-06-18T02:10:18.507Z,794.00
2023-06-18T02:11:18.491Z,810.00
2023-06-18T02:12:18.490Z,808.00
2023-06-18T02:13:18.488Z,808.00
2023-06-18T02:14:18.509Z,800.00
2023-06-18T02:15:18.515Z,834.00
2023-06-18T02:16:18.525Z,839.00
2023-06-18T02:17:18.494Z,842.00
2023-06-18T02:18:18.501Z,853.00
2023-06-18T02:19:18.532Z,856.00
2023-06-18T02:20:18.537Z,856.00
2023-06-18T02:21:18.525Z,850.00
2023-06-18T02:22:18.513Z,855.00
2023-06-18T02:23:18.524Z,841.00
2023-06-18T02:24:18.538Z,822.00
2023-06-18T02:25:18.541Z,838.00
2023-06-18T02:26:18.534Z,852.00
2023-06-18T02:27:18.535Z,843.00
2023-06-18T02:28:18.536Z,810.00
2023-06-18T02:29:18.552Z,816.00
2023-06-18T02:30:18.549Z,853.00
2023-06-18T02:31:18.569Z,863.00
2023-06-18T02:32:18.570Z,876.00
2023-06-18T02:33:18.571Z,889.00
2023-06-18T02:34:18.576Z,934.00
2023-06-18T02:35:18.604Z,938.00
2023-06-18T02:36:18.655Z,951.00
2023-06-18T02:37:18.597Z,935.00
2023-06-18T02:38:18.601Z,957.00
2023-06-18T02:39:18.623Z,990.00
2023-06-18T02:40:18.649Z,975.00
2023-06-18T02:41:18.624Z,964.00
2023-06-18T02:42:18.642Z,947.00
2023-06-18T02:43:18.654Z,961.00
2023-06-18T02:44:18.657Z,952.00
2023-06-18T02:45:18.675Z,959.00
2023-06-18T02:46:18.708Z,960.00
2023-06-18T02:47:18.669Z,945.00
2023-06-18T02:48:18.699Z,935.00
2023-06-18T02:49:18.684Z,933.00
2023-06-18T02:50:18.755Z,943.00
2023-06-18T02:51:18.733Z,964.00
2023-06-18T02:52:18.728Z,970.00
2023-06-18T02:53:18.732Z,972.00
2023-06-18T02:54:18.757Z,943.00
2023-06-18T02:55:18.733Z,954.00
2023-06-18T02:56:18.753Z,952.00
2023-06-18T02:57:18.760Z,943.00
2023-06-18T02:58:18.756Z,974.00
2023-06-18T02:59:18.767Z,956.00
2023-06-18T03:00:18.930Z,928.00
2023-06-18T03:01:18.876Z,922.00
2023-06-18T03:02:18.767Z,950.00
2023-06-18T03:03:18.774Z,934.00
2023-06-18T03:04:18.781Z,888.00
2023-06-18T03:05:18.949Z,870.00
2023-06-18T03:06:18.791Z,870.00
2023-06-18T03:07:18.804Z,891.00
2023-06-18T03:08:18.804Z,881.00
2023-06-18T03:09:18.844Z,887.00
2023-06-18T03:10:18.865Z,889.00
2023-06-18T03:11:18.848Z,897.00
2023-06-18T03:12:18.845Z,929.00
2023-06-18T03:13:18.857Z,918.00
2023-06-18T03:14:18.855Z,908.00
2023-06-18T03:15:18.869Z,910.00
2023-06-18T03:16:18.904Z,910.00
2023-06-18T03:17:18.883Z,901.00
2023-06-18T03:18:18.888Z,889.00
2023-06-18T03:19:18.900Z,897.00
2023-06-18T03:20:19.577Z,902.00
2023-06-18T03:21:18.913Z,911.00
2023-06-18T03:22:18.924Z,894.00
2023-06-18T03:23:18.940Z,880.00
2023-06-18T03:24:18.976Z,878.00
2023-06-18T03:25:18.937Z,869.00
2023-06-18T03:26:18.934Z,855.00
2023-06-18T03:27:18.956Z,845.00
2023-06-18T03:28:19.002Z,834.00
2023-06-18T03:29:18.971Z,829.00
2023-06-18T03:30:19.029Z,827.00
2023-06-18T03:31:18.991Z,815.00
2023-06-18T03:32:19.004Z,829.00
2023-06-18T03:33:19.150Z,821.00
2023-06-18T03:34:20.565Z,837.00
2023-06-18T03:35:19.025Z,845.00
2023-06-18T03:36:19.030Z,829.00
2023-06-18T03:37:19.027Z,843.00
2023-06-18T03:38:19.045Z,837.00
2023-06-18T03:39:19.049Z,807.00
2023-06-18T03:40:19.089Z,814.00
2023-06-18T03:41:19.095Z,816.00
2023-06-18T03:42:19.102Z,836.00
2023-06-18T03:43:19.075Z,840.00
2023-06-18T03:44:19.076Z,840.00
2023-06-18T03:45:19.082Z,857.00
2023-06-18T03:46:19.177Z,857.00
2023-06-18T03:47:19.107Z,859.00
2023-06-18T03:48:19.105Z,859.00
2023-06-18T03:49:19.110Z,842.00
2023-06-18T03:50:19.227Z,842.00
2023-06-18T03:51:19.123Z,852.00
2023-06-18T03:52:19.149Z,845.00
2023-06-18T03:53:19.139Z,828.00
2023-06-18T03:54:19.196Z,846.00
2023-06-18T03:55:19.165Z,858.00
2023-06-18T03:56:19.184Z,843.00
2023-06-18T03:57:19.165Z,866.00
2023-06-18T03:58:19.203Z,890.00
2023-06-18T03:59:19.163Z,907.00
2023-06-18T04:00:19.225Z,907.00
2023-06-18T04:01:19.218Z,885.00
2023-06-18T04:02:19.207Z,876.00
2023-06-18T04:03:19.317Z,887.00
2023-06-18T04:04:19.188Z,895.00
2023-06-18T04:05:19.204Z,896.00
2023-06-18T04:06:19.180Z,899.00
2023-06-18T04:07:19.189Z,909.00
2023-06-18T04:08:19.214Z,948.00
2023-06-18T04:09:20.453Z,949.00
2023-06-18T04:10:19.275Z,941.00
2023-06-18T04:11:19.201Z,966.00
2023-06-18T04:12:19.197Z,979.00
2023-06-18T04:13:19.197Z,949.00
2023-06-18T04:14:19.177Z,997.00
2023-06-18T04:15:19.196Z,1007.00
2023-06-18T04:16:19.226Z,1030.00
2023-06-18T04:17:19.180Z,1060.00
2023-06-18T04:18:19.183Z,1051.00
2023-06-18T04:19:19.192Z,1051.00
2023-06-18T04:20:19.251Z,1041.00
2023-06-18T04:21:19.186Z,1085.00
2023-06-18T04:22:19.173Z,1072.00
2023-06-18T04:23:19.173Z,1091.00
2023-06-18T04:24:19.257Z,1088.00
2023-06-18T04:25:19.179Z,1089.00
2023-06-18T04:26:19.177Z,1122.00
2023-06-18T04:27:19.209Z,1115.00
2023-06-18T04:28:19.188Z,1114.00
2023-06-18T04:29:19.203Z,1127.00
2023-06-18T04:30:19.207Z,1126.00
2023-06-18T04:31:19.210Z,1151.00
2023-06-18T04:32:19.223Z,1125.00
2023-06-18T04:33:19.230Z,1139.00
2023-06-18T04:34:19.261Z,1190.00
2023-06-18T04:35:19.318Z,1194.00
2023-06-18T04:36:19.360Z,1213.00
2023-06-18T04:37:19.359Z,1237.00
2023-06-18T04:38:19.394Z,1255.00
2023-06-18T04:39:19.439Z,1240.00
2023-06-18T04:40:19.686Z,1246.00
2023-06-18T04:41:19.537Z,1218.00
2023-06-18T04:42:19.592Z,1161.00
2023-06-18T04:43:19.649Z,1178.00
2023-06-18T04:44:19.674Z,1150.00
2023-06-18T04:45:19.706Z,1143.00
2023-06-18T04:46:19.739Z,1114.00
2023-06-18T04:47:19.730Z,1117.00
2023-06-18T04:48:19.779Z,1104.00
2023-06-18T04:49:19.757Z,1088.00
2023-06-18T04:50:19.838Z,1078.00
2023-06-18T04:51:19.775Z,1058.00
2023-06-18T04:52:19.845Z,1067.00
2023-06-18T04:53:19.892Z,1044.00
2023-06-18T04:54:19.925Z,1036.00
2023-06-18T04:55:20.008Z,1049.00
2023-06-18T04:56:20.021Z,1042.00
2023-06-18T04:57:20.053Z,981.00
2023-06-18T04:58:20.069Z,969.00
2023-06-18T04:59:22.054Z,969.00
2023-06-18T05:00:20.212Z,907.00
2023-06-18T05:01:20.103Z,849.00
2023-06-18T05:02:20.079Z,846.00
2023-06-18T05:03:20.193Z,848.00
2023-06-18T05:04:20.200Z,813.00
2023-06-18T05:05:20.062Z,767.00
2023-06-18T05:06:20.072Z,691.00
2023-06-18T05:07:20.062Z,689.00
2023-06-18T05:08:20.052Z,709.00
2023-06-18T05:09:20.046Z,705.00
2023-06-18T05:10:20.102Z,703.00
2023-06-18T05:11:20.037Z,708.00
2023-06-18T05:12:20.018Z,740.00
2023-06-18T05:13:20.025Z,738.00
2023-06-18T05:14:19.995Z,763.00
2023-06-18T05:15:20.007Z,763.00
2023-06-18T05:16:20.004Z,763.00
2023-06-18T05:17:19.975Z,737.00
2023-06-18T05:18:19.971Z,709.00
2023-06-18T05:19:19.981Z,706.00
2023-06-18T05:20:20.234Z,714.00
2023-06-18T05:21:19.977Z,720.00
2023-06-18T05:22:19.946Z,739.00
2023-06-18T05:23:19.976Z,737.00
2023-06-18T05:24:19.983Z,731.00
2023-06-18T05:25:19.954Z,754.00
2023-06-18T05:26:19.947Z,781.00
2023-06-18T05:27:19.917Z,782.00
2023-06-18T05:28:19.925Z,804.00
2023-06-18T05:29:19.933Z,809.00
2023-06-18T05:30:20.030Z,800.00
2023-06-18T05:31:19.920Z,826.00
2023-06-18T05:32:19.896Z,831.00
2023-06-18T05:33:19.888Z,821.00
2023-06-18T05:34:19.894Z,824.00
2023-06-18T05:35:19.891Z,833.00
2023-06-18T05:36:19.869Z,843.00
2023-06-18T05:37:19.888Z,809.00
2023-06-18T05:38:19.881Z,814.00
2023-06-18T05:39:19.867Z,801.00
2023-06-18T05:40:19.871Z,804.00
2023-06-18T05:41:19.868Z,795.00
2023-06-18T05:42:19.838Z,808.00
2023-06-18T05:43:19.833Z,801.00
2023-06-18T05:44:19.849Z,782.00
2023-06-18T05:45:19.873Z,801.00
2023-06-18T05:46:19.879Z,799.00
2023-06-18T05:47:19.841Z,812.00
2023-06-18T05:48:19.812Z,809.00
2023-06-18T05:49:19.804Z,793.00
2023-06-18T05:50:19.982Z,792.00
2023-06-18T05:51:19.786Z,799.00
2023-06-18T05:52:19.764Z,785.00
2023-06-18T05:53:19.757Z,792.00
2023-06-18T05:54:19.764Z,809.00
2023-06-18T05:55:19.751Z,808.00
2023-06-18T05:56:19.771Z,750.00
2023-06-18T05:57:19.728Z,772.00
2023-06-18T05:58:19.723Z,737.00
2023-06-18T05:59:19.742Z,714.00
2023-06-18T06:00:19.846Z,717.00
2023-06-18T06:01:19.821Z,685.00
2023-06-18T06:02:19.782Z,674.00
2023-06-18T06:03:19.790Z,668.00
2023-06-18T06:04:19.849Z,657.00
2023-06-18T06:05:19.807Z,651.00
2023-06-18T06:06:19.783Z,651.00
2023-06-18T06:07:19.814Z,639.00
2023-06-18T06:08:19.805Z,623.00
2023-06-18T06:09:19.892Z,611.00
2023-06-18T06:10:20.063Z,600.00
2023-06-18T06:11:20.003Z,594.00
2023-06-18T06:12:20.052Z,592.00
2023-06-18T06:13:20.098Z,570.00
2023-06-18T06:14:20.165Z,575.00
2023-06-18T06:15:20.256Z,571.00
2023-06-18T06:16:20.355Z,586.00
2023-06-18T06:17:20.365Z,596.00
2023-06-18T06:18:20.367Z,590.00
2023-06-18T06:19:20.370Z,593.00
2023-06-18T06:20:20.501Z,594.00
2023-06-18T06:21:20.425Z,588.00
2023-06-18T06:22:20.461Z,591.00
2023-06-18T06:23:20.502Z,591.00
2023-06-18T06:24:20.612Z,586.00
2023-06-18T06:25:20.579Z,595.00
2023-06-18T06:26:20.582Z,576.00
2023-06-18T06:27:20.615Z,559.00
2023-06-18T06:28:20.615Z,575.00
2023-06-18T06:29:20.642Z,575.00
2023-06-18T06:30:21.018Z,577.00
2023-06-18T06:31:20.741Z,557.00
2023-06-18T06:32:20.774Z,554.00
2023-06-18T06:33:20.844Z,524.00
2023-06-18T06:34:20.934Z,525.00
2023-06-18T06:35:20.969Z,508.00
2023-06-18T06:36:21.063Z,523.00
2023-06-18T06:37:21.074Z,524.00
2023-06-18T06:38:21.164Z,513.00
2023-06-18T06:39:21.178Z,510.00
2023-06-18T06:40:21.434Z,509.00
2023-06-18T06:41:21.241Z,507.00
2023-06-18T06:42:21.273Z,500.00
2023-06-18T06:43:21.286Z,501.00
2023-06-18T06:44:21.270Z,500.00
2023-06-18T06:45:21.295Z,500.00
2023-06-18T06:46:21.360Z,500.00
2023-06-18T06:47:21.295Z,500.00
2023-06-18T06:48:21.284Z,500.00
2023-06-18T06:49:21.286Z,500.00
2023-06-18T06:50:21.491Z,500.00
2023-06-18T06:51:21.309Z,503.00
2023-06-18T06:52:21.365Z,501.00
2023-06-18T06:53:21.333Z,501.00
2023-06-18T06:54:21.355Z,501.00
2023-06-18T06:55:21.357Z,503.00
2023-06-18T06:56:21.529Z,501.00
2023-06-18T06:57:21.375Z,502.00
2023-06-18T06:58:21.385Z,505.00
2023-06-18T06:59:21.387Z,504.00
2023-06-18T07:00:21.709Z,508.00
2023-06-18T07:01:21.473Z,500.00
2023-06-18T07:02:21.532Z,500.00
2023-06-18T07:03:21.538Z,502.00
2023-06-18T07:04:21.476Z,505.00
2023-06-18T07:05:21.484Z,505.00
2023-06-18T07:06:21.523Z,503.00
2023-06-18T07:07:21.543Z,518.00
2023-06-18T07:08:21.564Z,507.00
2023-06-18T07:09:21.589Z,500.00
2023-06-18T07:10:21.883Z,507.00
2023-06-18T07:11:21.638Z,500.00
2023-06-18T07:12:22.502Z,503.00
2023-06-18T07:13:21.692Z,503.00
2023-06-18T07:14:21.734Z,500.00
2023-06-18T07:15:21.733Z,500.00
2023-06-18T07:16:21.800Z,501.00
2023-06-18T07:17:21.835Z,500.00
2023-06-18T07:18:21.797Z,506.00
2023-06-18T07:19:21.831Z,500.00
2023-06-18T07:20:22.096Z,500.00
2023-06-18T07:21:21.914Z,502.00
2023-06-18T07:22:21.947Z,500.00
2023-06-18T07:23:21.952Z,508.00
2023-06-18T07:24:22.027Z,503.00
2023-06-18T07:25:22.008Z,513.00
2023-06-18T07:26:22.041Z,516.00
2023-06-18T07:27:22.094Z,507.00
2023-06-18T07:28:22.102Z,526.00
2023-06-18T07:29:22.132Z,542.00
2023-06-18T07:30:22.402Z,534.00
2023-06-18T07:31:22.210Z,531.00
2023-06-18T07:32:22.267Z,561.00
2023-06-18T07:33:22.258Z,542.00
2023-06-18T07:34:22.297Z,547.00
2023-06-18T07:35:22.356Z,567.00
2023-06-18T07:36:22.359Z,588.00
2023-06-18T07:37:22.394Z,563.00
2023-06-18T07:38:22.410Z,575.00
2023-06-18T07:39:22.879Z,620.00
2023-06-18T07:40:22.852Z,636.00
2023-06-18T07:41:22.523Z,658.00
2023-06-18T07:42:22.557Z,670.00
2023-06-18T07:43:22.578Z,664.00
2023-06-18T07:44:22.593Z,662.00
2023-06-18T07:45:22.642Z,715.00
2023-06-18T07:46:22.791Z,800.00
2023-06-18T07:47:22.707Z,766.00
2023-06-18T07:48:22.730Z,755.00
2023-06-18T07:49:22.752Z,729.00
2023-06-18T07:50:22.990Z,722.00
2023-06-18T07:51:22.830Z,758.00
2023-06-18T07:52:22.863Z,825.00
2023-06-18T07:53:22.901Z,889.00
2023-06-18T07:54:22.927Z,878.00
2023-06-18T07:55:22.961Z,918.00
2023-06-18T07:56:23.070Z,903.00
2023-06-18T07:57:23.024Z,938.00
2023-06-18T07:58:23.062Z,944.00
2023-06-18T07:59:23.086Z,911.00
2023-06-18T08:00:23.405Z,966.00
2023-06-18T08:01:23.178Z,955.00
2023-06-18T08:02:23.196Z,949.00
2023-06-18T08:03:23.241Z,932.00
2023-06-18T08:04:23.306Z,943.00
2023-06-18T08:05:23.308Z,1029.00
2023-06-18T08:06:23.325Z,995.00
2023-06-18T08:07:23.354Z,1046.00
2023-06-18T08:08:23.406Z,1082.00
2023-06-18T08:09:23.413Z,1071.00
2023-06-18T08:10:23.614Z,1047.00
2023-06-18T08:11:23.494Z,1039.00
2023-06-18T08:12:23.530Z,956.00
2023-06-18T08:13:23.558Z,1031.00
2023-06-18T08:14:23.581Z,1031.00
2023-06-18T08:15:23.629Z,1088.00
2023-06-18T08:16:23.716Z,1110.00
2023-06-18T08:17:23.729Z,1102.00
2023-06-18T08:18:23.771Z,992.00
2023-06-18T08:19:23.769Z,999.00
2023-06-18T08:20:23.989Z,965.00
2023-06-18T08:21:23.826Z,1040.00
2023-06-18T08:22:23.884Z,1076.00
2023-06-18T08:23:23.919Z,1072.00
2023-06-18T08:24:23.977Z,1012.00
2023-06-18T08:25:23.990Z,963.00
2023-06-18T08:26:24.045Z,967.00
2023-06-18T08:27:24.041Z,1021.00
2023-06-18T08:28:24.088Z,1027.00
2023-06-18T08:29:24.121Z,995.00
2023-06-18T08:30:24.380Z,1051.00
2023-06-18T08:31:24.176Z,1122.00
2023-06-18T08:32:24.299Z,1047.00
2023-06-18T08:33:24.254Z,1049.00
2023-06-18T08:34:24.276Z,1091.00
2023-06-18T08:35:24.326Z,1088.00
2023-06-18T08:36:24.336Z,1061.00
2023-06-18T08:37:24.380Z,1020.00
2023-06-18T08:38:24.417Z,1048.00
2023-06-18T08:39:24.456Z,1019.00
2023-06-18T08:40:24.611Z,1102.00
2023-06-18T08:41:24.507Z,1084.00
2023-06-18T08:42:24.547Z,1084.00
2023-06-18T08:43:24.611Z,1037.00
2023-06-18T08:44:24.629Z,1021.00
2023-06-18T08:45:24.651Z,1054.00
2023-06-18T08:46:24.751Z,1053.00
2023-06-18T08:47:24.761Z,1011.00
2023-06-18T08:48:30.093Z,1062.00
2023-06-18T08:49:25.757Z,1061.00
2023-06-18T08:50:25.015Z,1063.00
2023-06-18T08:51:24.753Z,1033.00
2023-06-18T08:52:24.736Z,1003.00
2023-06-18T08:53:24.758Z,958.00
2023-06-18T08:54:24.723Z,943.00
2023-06-18T08:55:24.737Z,878.00
2023-06-18T08:56:24.716Z,919.00
2023-06-18T08:57:24.710Z,910.00
2023-06-18T08:58:24.716Z,932.00
2023-06-18T08:59:24.694Z,960.00
2023-06-18T09:00:25.057Z,971.00
2023-06-18T09:01:24.756Z,980.00
2023-06-18T09:02:24.955Z,964.00
2023-06-18T09:03:24.889Z,898.00
2023-06-18T09:04:24.915Z,909.00
2023-06-18T09:05:25.198Z,884.00
2023-06-18T09:06:25.006Z,928.00
2023-06-18T09:07:25.053Z,970.00
2023-06-18T09:08:25.125Z,985.00
2023-06-18T09:09:25.190Z,992.00
2023-06-18T09:10:25.230Z,922.00
2023-06-18T09:11:27.577Z,899.00
2023-06-18T09:12:25.272Z,868.00
2023-06-18T09:13:25.272Z,917.00
2023-06-18T09:14:25.262Z,838.00
2023-06-18T09:15:25.383Z,844.00
2023-06-18T09:16:25.272Z,835.00
2023-06-18T09:17:25.287Z,856.00
2023-06-18T09:18:25.221Z,818.00
2023-06-18T09:19:25.223Z,818.00
2023-06-18T09:20:25.213Z,783.00
2023-06-18T09:21:25.195Z,772.00
2023-06-18T09:22:25.189Z,744.00
2023-06-18T09:23:25.203Z,714.00
2023-06-18T09:24:25.213Z,687.00
2023-06-18T09:25:25.401Z,680.00
2023-06-18T09:26:25.185Z,654.00
2023-06-18T09:27:25.187Z,668.00
2023-06-18T09:28:25.168Z,760.00
2023-06-18T09:29:25.139Z,725.00
2023-06-18T09:30:25.170Z,711.00
2023-06-18T09:31:25.125Z,666.00
2023-06-18T09:32:25.147Z,643.00
2023-06-18T09:33:25.130Z,644.00
2023-06-18T09:34:25.121Z,644.00
2023-06-18T09:35:25.320Z,647.00
2023-06-18T09:36:25.212Z,658.00
2023-06-18T09:37:25.257Z,645.00
2023-06-18T09:38:25.313Z,662.00
2023-06-18T09:39:25.409Z,671.00
2023-06-18T09:40:25.438Z,658.00
2023-06-18T09:41:25.478Z,633.00
2023-06-18T09:42:25.524Z,626.00
2023-06-18T09:43:25.621Z,622.00
2023-06-18T09:44:25.695Z,620.00
2023-06-18T09:45:25.849Z,636.00
2023-06-18T09:46:25.909Z,643.00
2023-06-18T09:47:25.964Z,625.00
2023-06-18T09:48:26.068Z,619.00
2023-06-18T09:49:26.090Z,611.00
2023-06-18T09:50:28.534Z,604.00
2023-06-18T09:51:26.145Z,595.00
2023-06-18T09:52:26.154Z,577.00
2023-06-18T09:53:26.150Z,569.00
2023-06-18T09:54:26.142Z,582.00
2023-06-18T09:55:26.138Z,589.00
2023-06-18T09:56:26.136Z,573.00
2023-06-18T09:57:26.144Z,569.00
2023-06-18T09:58:26.124Z,564.00
2023-06-18T09:59:26.116Z,568.00
2023-06-18T10:00:26.091Z,571.00
2023-06-18T10:01:26.136Z,575.00
2023-06-18T10:02:26.253Z,566.00
2023-06-18T10:03:26.111Z,565.00
2023-06-18T10:04:26.081Z,584.00
2023-06-18T10:05:26.083Z,601.00
2023-06-18T10:06:26.085Z,590.00
2023-06-18T10:07:26.048Z,571.00
2023-06-18T10:08:26.039Z,569.00
2023-06-18T10:09:26.036Z,574.00
2023-06-18T10:10:26.048Z,573.00
2023-06-18T10:11:26.041Z,576.00
2023-06-18T10:12:26.024Z,566.00
2023-06-18T10:13:26.014Z,576.00
2023-06-18T10:14:26.030Z,602.00
2023-06-18T10:15:26.013Z,616.00
2023-06-18T10:16:25.994Z,614.00
2023-06-18T10:17:26.047Z,591.00
2023-06-18T10:18:25.999Z,581.00
2023-06-18T10:19:25.976Z,557.00
2023-06-18T10:20:25.999Z,546.00
2023-06-18T10:21:25.970Z,543.00
2023-06-18T10:22:25.971Z,537.00
2023-06-18T10:23:25.961Z,551.00
2023-06-18T10:24:25.984Z,568.00
2023-06-18T10:25:25.939Z,589.00
2023-06-18T10:26:25.923Z,578.00
2023-06-18T10:27:25.927Z,569.00
2023-06-18T10:28:25.912Z,572.00
2023-06-18T10:29:25.909Z,574.00
2023-06-18T10:30:25.913Z,578.00
2023-06-18T10:31:25.906Z,587.00
2023-06-18T10:32:25.943Z,583.00
2023-06-18T10:33:25.876Z,581.00
2023-06-18T10:34:25.882Z,602.00
2023-06-18T10:35:26.206Z,605.00
2023-06-18T10:36:25.849Z,580.00
2023-06-18T10:37:25.852Z,572.00
2023-06-18T10:38:25.854Z,573.00
2023-06-18T10:39:25.963Z,576.00
2023-06-18T10:40:25.822Z,570.00
2023-06-18T10:41:25.824Z,541.00
2023-06-18T10:42:25.806Z,559.00
2023-06-18T10:43:25.802Z,586.00
2023-06-18T10:44:25.788Z,584.00
2023-06-18T10:45:25.884Z,591.00
2023-06-18T10:46:25.848Z,581.00
2023-06-18T10:47:25.910Z,583.00
2023-06-18T10:48:25.763Z,558.00
2023-06-18T10:49:25.762Z,551.00
2023-06-18T10:50:26.127Z,551.00
2023-06-18T10:51:25.761Z,561.00
2023-06-18T10:52:27.721Z,581.00
2023-06-18T10:53:25.736Z,582.00
2023-06-18T10:54:25.723Z,583.00
2023-06-18T10:55:27.990Z,580.00
2023-06-18T10:56:25.723Z,582.00
2023-06-18T10:57:25.706Z,585.00
2023-06-18T10:58:25.735Z,594.00
2023-06-18T10:59:25.695Z,612.00
2023-06-18T11:00:25.688Z,618.00
2023-06-18T11:01:25.696Z,599.00
2023-06-18T11:02:25.716Z,603.00
2023-06-18T11:03:25.836Z,598.00
2023-06-18T11:04:25.674Z,609.00
2023-06-18T11:05:25.666Z,616.00
2023-06-18T11:06:25.646Z,608.00
2023-06-18T11:07:25.654Z,627.00
2023-06-18T11:08:25.634Z,643.00
2023-06-18T11:09:25.640Z,653.00
2023-06-18T11:10:25.623Z,627.00
2023-06-18T11:11:25.618Z,620.00
2023-06-18T11:12:25.621Z,641.00
2023-06-18T11:13:25.603Z,648.00
2023-06-18T11:14:25.602Z,640.00
2023-06-18T11:15:25.790Z,650.00
2023-06-18T11:16:25.602Z,655.00
2023-06-18T11:17:25.652Z,647.00
2023-06-18T11:18:25.569Z,663.00
2023-06-18T11:19:25.628Z,648.00
2023-06-18T11:20:25.554Z,640.00
2023-06-18T11:21:25.570Z,652.00
2023-06-18T11:22:25.550Z,656.00
2023-06-18T11:23:25.552Z,656.00
2023-06-18T11:24:25.597Z,662.00
2023-06-18T11:25:25.556Z,660.00
2023-06-18T11:26:25.540Z,655.00
2023-06-18T11:27:25.545Z,653.00
2023-06-18T11:28:25.523Z,658.00
2023-06-18T11:29:25.496Z,655.00
2023-06-18T11:30:25.578Z,657.00
2023-06-18T11:31:25.492Z,658.00
2023-06-18T11:32:25.634Z,680.00
2023-06-18T11:33:25.599Z,669.00
2023-06-18T11:34:25.491Z,658.00
2023-06-18T11:35:25.672Z,671.00
2023-06-18T11:36:25.454Z,676.00
2023-06-18T11:37:25.449Z,707.00
2023-06-18T11:38:25.451Z,729.00
2023-06-18T11:39:25.459Z,717.00
2023-06-18T11:40:25.428Z,765.00
2023-06-18T11:41:25.426Z,771.00
2023-06-18T11:42:25.414Z,741.00
2023-06-18T11:43:25.421Z,738.00
2023-06-18T11:44:25.407Z,718.00
2023-06-18T11:45:25.652Z,734.00
2023-06-18T11:46:25.439Z,737.00
2023-06-18T11:47:25.393Z,735.00
2023-06-18T11:48:25.370Z,695.00
2023-06-18T11:49:25.387Z,709.00
2023-06-18T11:50:25.378Z,725.00
2023-06-18T11:51:25.364Z,681.00
2023-06-18T11:52:25.338Z,693.00
2023-06-18T11:53:25.345Z,731.00
2023-06-18T11:54:25.348Z,744.00
2023-06-18T11:55:25.582Z,768.00
2023-06-18T11:56:25.317Z,720.00
2023-06-18T11:57:25.326Z,729.00
2023-06-18T11:58:25.313Z,748.00
2023-06-18T11:59:25.313Z,771.00
2023-06-18T12:00:25.317Z,802.00
2023-06-18T12:01:25.320Z,810.00
2023-06-18T12:02:25.356Z,798.00
2023-06-18T12:03:25.299Z,713.00
2023-06-18T12:04:25.374Z,732.00
2023-06-18T12:05:25.441Z,735.00
2023-06-18T12:06:25.272Z,755.00
2023-06-18T12:07:25.265Z,771.00
2023-06-18T12:08:25.243Z,777.00
2023-06-18T12:09:25.236Z,733.00
2023-06-18T12:10:25.234Z,694.00
2023-06-18T12:11:25.227Z,729.00
2023-06-18T12:12:25.213Z,719.00
2023-06-18T12:13:25.221Z,719.00
2023-06-18T12:14:25.229Z,731.00
2023-06-18T12:15:25.416Z,757.00
2023-06-18T12:16:25.244Z,750.00
2023-06-18T12:17:25.199Z,733.00
2023-06-18T12:18:25.204Z,789.00
2023-06-18T12:19:25.177Z,798.00
2023-06-18T12:20:25.185Z,818.00
2023-06-18T12:21:25.163Z,794.00
2023-06-18T12:22:25.158Z,757.00
2023-06-18T12:23:25.163Z,751.00